createdAt,value
2019-03-09T00:00:15.346Z,9.5
2019-03-09T00:03:15.104Z,9.5
2019-03-09T00:06:15.962Z,9.4
2019-03-09T00:09:15.665Z,9.4
2019-03-09T00:12:15.658Z,9.5
2019-03-09T00:15:15.462Z,9.5
2019-03-09T00:18:15.275Z,9.5
2019-03-09T00:21:15.922Z,9.4
2019-03-09T00:24:15.500Z,9.5
2019-03-09T00:27:15.230Z,9.4
2019-03-09T00:30:15.873Z,9.3
2019-03-09T00:33:15.448Z,9.3
2019-03-09T00:36:15.234Z,9.3
2019-03-09T00:39:15.954Z,9.3
2019-03-09T00:42:15.687Z,9.3
2019-03-09T00:45:15.289Z,9.3
2019-03-09T00:48:15.010Z,9.3
2019-03-09T00:51:15.715Z,9.4
2019-03-09T00:54:15.850Z,9.4
2019-03-09T00:57:15.563Z,9.5
2019-03-09T01:00:15.156Z,9.5
2019-03-09T01:03:15.974Z,9.5
2019-03-09T01:06:15.482Z,9.5
2019-03-09T01:09:15.304Z,9.5
2019-03-09T01:12:15.846Z,9.5
2019-03-09T01:15:15.499Z,9.4
2019-03-09T01:18:15.605Z,9.4
2019-03-09T01:21:15.150Z,9.4
2019-03-09T01:24:15.810Z,9.4
2019-03-09T01:27:15.536Z,9.3
2019-03-09T01:30:15.204Z,9.4
2019-03-09T01:33:15.790Z,9.4
2019-03-09T01:36:14.913Z,9.4
2019-03-09T01:39:15.484Z,9.3
2019-03-09T01:42:15.015Z,9.4
2019-03-09T01:45:15.755Z,9.4
2019-03-09T01:48:15.467Z,9.3
2019-03-09T01:51:15.092Z,9.3
2019-03-09T01:54:15.748Z,9.3
2019-03-09T01:57:15.349Z,9.3
2019-03-09T02:00:14.966Z,9.3
2019-03-09T02:03:15.740Z,9.3
2019-03-09T02:06:15.484Z,9.3
2019-03-09T02:09:15.177Z,9.4
2019-03-09T02:12:15.802Z,9.4
2019-03-09T02:15:15.550Z,9.4
2019-03-09T02:18:15.321Z,9.4
2019-03-09T02:21:15.006Z,9.4
2019-03-09T02:24:15.794Z,9.4
2019-03-09T02:27:15.428Z,9.4
2019-03-09T02:30:15.255Z,9.5
2019-03-09T02:33:15.885Z,9.5
2019-03-09T02:36:15.449Z,9.5
2019-03-09T02:39:15.096Z,9.5
2019-03-09T02:42:15.495Z,9.4
2019-03-09T02:45:15.151Z,9.5
2019-03-09T02:48:15.407Z,9.5
2019-03-09T02:51:15.096Z,9.5
2019-03-09T02:54:15.773Z,9.5
2019-03-09T02:57:15.464Z,9.5
2019-03-09T03:00:15.023Z,9.5
2019-03-09T03:03:15.128Z,9.6
2019-03-09T03:06:15.912Z,9.5
2019-03-09T03:09:15.672Z,9.6
2019-03-09T03:12:15.621Z,9.6
2019-03-09T03:15:15.215Z,9.6
2019-03-09T03:18:15.835Z,9.6
2019-03-09T03:21:15.524Z,9.6
2019-03-09T03:24:15.279Z,9.5
2019-03-09T03:27:15.112Z,9.5
2019-03-09T03:30:15.750Z,9.5
2019-03-09T03:33:15.636Z,9.4
2019-03-09T03:36:15.342Z,9.3
2019-03-09T03:39:15.217Z,9.2
2019-03-09T03:42:15.709Z,9.2
2019-03-09T03:45:15.560Z,9.1
2019-03-09T03:48:15.269Z,9.0
2019-03-09T03:51:14.958Z,9.0
2019-03-09T03:54:15.566Z,8.9
2019-03-09T03:57:15.175Z,8.9
2019-03-09T04:00:15.923Z,8.8
2019-03-09T04:03:15.709Z,8.8
2019-03-09T04:06:15.643Z,8.8
2019-03-09T04:09:15.581Z,8.7
2019-03-09T04:12:15.532Z,8.7
2019-03-09T04:15:15.563Z,8.6
2019-03-09T04:18:15.311Z,8.7
2019-03-09T04:21:15.011Z,8.6
2019-03-09T04:24:15.762Z,8.6
2019-03-09T04:27:15.473Z,8.6
2019-03-09T04:30:15.126Z,8.6
2019-03-09T04:33:15.773Z,8.6
2019-03-09T04:36:15.532Z,8.6
2019-03-09T04:39:15.256Z,8.6
2019-03-09T04:42:15.950Z,8.6
2019-03-09T04:45:15.573Z,8.6
2019-03-09T04:48:15.182Z,8.5
2019-03-09T04:51:15.014Z,8.5
2019-03-09T04:54:15.674Z,8.4
2019-03-09T04:57:15.385Z,8.5
2019-03-09T05:00:15.093Z,8.4
2019-03-09T05:03:15.743Z,8.4
2019-03-09T05:06:15.579Z,8.5
2019-03-09T05:09:15.353Z,8.5
2019-03-09T05:12:15.608Z,8.6
2019-03-09T05:15:15.323Z,8.5
2019-03-09T05:18:15.318Z,8.5
2019-03-09T05:21:15.010Z,8.5
2019-03-09T05:24:15.949Z,8.5
2019-03-09T05:27:15.717Z,8.4
2019-03-09T05:30:15.505Z,8.5
2019-03-09T05:33:15.908Z,8.6
2019-03-09T05:36:15.719Z,8.6
2019-03-09T05:39:15.565Z,8.6
2019-03-09T05:42:15.542Z,8.6
2019-03-09T05:45:15.400Z,8.6
2019-03-09T05:48:15.135Z,8.7
2019-03-09T05:51:15.049Z,8.8
2019-03-09T05:54:15.745Z,8.8
2019-03-09T05:57:15.685Z,8.8
2019-03-09T06:00:15.640Z,8.9
2019-03-09T06:03:15.446Z,8.9
2019-03-09T06:06:15.623Z,8.9
2019-03-09T06:09:15.509Z,8.9
2019-03-09T06:12:15.173Z,9.0
2019-03-09T06:15:15.062Z,9.1
2019-03-09T06:18:15.038Z,9.1
2019-03-09T06:21:15.728Z,9.1
2019-03-09T06:24:15.677Z,9.1
2019-03-09T06:27:15.399Z,9.1
2019-03-09T06:30:15.252Z,9.1
2019-03-09T06:33:14.983Z,9.2
2019-03-09T06:36:15.840Z,9.2
2019-03-09T06:39:16.056Z,9.2
2019-03-09T06:42:15.709Z,9.3
2019-03-09T06:45:15.718Z,9.3
2019-03-09T06:48:15.813Z,9.4
2019-03-09T06:51:15.669Z,9.4
2019-03-09T06:54:15.496Z,9.4
2019-03-09T06:57:15.225Z,9.6
2019-03-09T07:00:15.888Z,9.6
2019-03-09T07:03:15.564Z,9.8
2019-03-09T07:06:15.666Z,10.0
2019-03-09T07:09:15.570Z,10.1
2019-03-09T07:12:15.441Z,10.3
2019-03-09T07:15:15.389Z,10.5
2019-03-09T07:18:15.645Z,10.8
2019-03-09T07:21:15.104Z,10.8
2019-03-09T07:24:15.944Z,10.9
2019-03-09T07:27:15.716Z,10.8
2019-03-09T07:30:15.452Z,10.9
2019-03-09T07:33:15.285Z,11.1
2019-03-09T07:36:15.257Z,11.4
2019-03-09T07:39:15.108Z,11.6
2019-03-09T07:42:15.931Z,11.9
2019-03-09T07:45:15.635Z,12.2
2019-03-09T07:48:15.529Z,12.1
2019-03-09T07:51:15.466Z,12.1
2019-03-09T07:54:15.453Z,12.3
2019-03-09T07:57:15.218Z,12.4
2019-03-09T08:00:14.916Z,12.6
2019-03-09T08:03:15.857Z,13.2
2019-03-09T08:06:15.794Z,13.7
2019-03-09T08:09:15.598Z,14.1
2019-03-09T08:12:15.375Z,13.9
2019-03-09T08:15:15.277Z,14.1
2019-03-09T08:18:15.366Z,14.2
2019-03-09T08:21:15.202Z,14.3
2019-03-09T08:24:14.938Z,14.4
2019-03-09T08:27:15.760Z,14.6
2019-03-09T08:30:15.652Z,14.7
2019-03-09T08:33:15.622Z,14.5
2019-03-09T08:36:15.467Z,14.5
2019-03-09T08:39:15.193Z,14.3
2019-03-09T08:42:15.650Z,14.0
2019-03-09T08:45:15.493Z,13.6
2019-03-09T08:48:15.284Z,13.2
2019-03-09T08:51:16.197Z,13.1
2019-03-09T08:54:15.235Z,12.9
2019-03-09T08:57:16.042Z,13.0
2019-03-09T09:00:15.735Z,12.9
2019-03-09T09:03:15.939Z,12.7
2019-03-09T09:06:15.793Z,12.6
2019-03-09T09:09:15.637Z,12.6
2019-03-09T09:12:15.383Z,12.5
2019-03-09T09:15:15.332Z,12.6
2019-03-09T09:18:15.220Z,12.6
2019-03-09T09:21:15.024Z,12.7
2019-03-09T09:24:15.707Z,12.7
2019-03-09T09:27:15.391Z,12.7
2019-03-09T09:30:15.282Z,12.8
2019-03-09T09:33:15.716Z,12.8
2019-03-09T09:36:15.533Z,12.8
2019-03-09T09:39:15.442Z,12.9
2019-03-09T09:42:15.209Z,13.0
2019-03-09T09:45:15.208Z,13.1
2019-03-09T09:48:15.050Z,13.2
2019-03-09T09:51:15.902Z,13.3
2019-03-09T09:54:15.968Z,13.4
2019-03-09T09:57:15.910Z,13.5
2019-03-09T10:00:15.875Z,13.6
2019-03-09T10:03:15.749Z,13.6
2019-03-09T10:06:15.619Z,13.6
2019-03-09T10:09:15.308Z,13.7
2019-03-09T10:12:15.207Z,13.8
2019-03-09T10:15:15.931Z,13.8
2019-03-09T10:18:15.002Z,14.1
2019-03-09T10:21:15.960Z,14.1
2019-03-09T10:24:15.876Z,14.2
2019-03-09T10:27:15.738Z,14.3
2019-03-09T10:30:15.424Z,14.6
2019-03-09T10:33:15.375Z,14.9
2019-03-09T10:36:15.464Z,15.3
2019-03-09T10:39:15.182Z,15.3
2019-03-09T10:42:14.977Z,15.3
2019-03-09T10:45:15.784Z,15.1
2019-03-09T10:48:15.600Z,15.1
2019-03-09T10:51:15.495Z,15.1
2019-03-09T10:54:15.231Z,14.9
2019-03-09T10:57:15.868Z,14.9
2019-03-09T11:00:15.584Z,14.8
2019-03-09T11:03:15.086Z,14.7
2019-03-09T11:06:15.883Z,14.7
2019-03-09T11:09:15.711Z,14.7
2019-03-09T11:12:15.278Z,14.7
2019-03-09T11:15:15.911Z,14.7
2019-03-09T11:18:15.787Z,14.9
2019-03-09T11:21:15.459Z,14.7
2019-03-09T11:24:15.237Z,14.8
2019-03-09T11:27:15.368Z,14.7
2019-03-09T11:30:15.117Z,14.5
2019-03-09T11:33:15.892Z,14.3
2019-03-09T11:36:15.538Z,13.8
2019-03-09T11:39:15.002Z,13.7
2019-03-09T11:42:15.565Z,13.6
2019-03-09T11:45:15.162Z,13.5
2019-03-09T11:48:15.872Z,13.3
2019-03-09T11:51:15.357Z,13.2
2019-03-09T11:54:15.120Z,13.2
2019-03-09T11:57:15.663Z,13.2
2019-03-09T12:00:15.798Z,13.3
2019-03-09T12:03:15.759Z,13.4
2019-03-09T12:06:15.366Z,13.3
2019-03-09T12:09:15.919Z,13.3
2019-03-09T12:12:15.514Z,13.3
2019-03-09T12:15:15.149Z,13.4
2019-03-09T12:18:15.129Z,13.4
2019-03-09T12:21:15.601Z,13.2
2019-03-09T12:24:18.751Z,13.3
2019-03-09T12:27:15.570Z,13.2
2019-03-09T12:30:15.219Z,13.1
2019-03-09T12:33:15.921Z,13.1
2019-03-09T12:36:15.908Z,13.2
2019-03-09T12:39:15.665Z,13.4
2019-03-09T12:42:15.353Z,13.8
2019-03-09T12:45:15.274Z,13.9
2019-03-09T12:48:15.067Z,14.1
2019-03-09T12:51:15.730Z,14.2
2019-03-09T12:54:15.590Z,14.1
2019-03-09T12:57:15.129Z,14.1
2019-03-09T13:00:15.623Z,14.3
2019-03-09T13:03:15.505Z,14.3
2019-03-09T13:06:15.505Z,14.1
2019-03-09T13:09:15.261Z,13.7
2019-03-09T13:12:15.698Z,13.7
2019-03-09T13:15:15.250Z,13.6
2019-03-09T13:18:15.584Z,13.7
2019-03-09T13:21:15.691Z,13.7
2019-03-09T13:24:15.243Z,13.7
2019-03-09T13:27:15.958Z,13.7
2019-03-09T13:30:15.651Z,13.7
2019-03-09T13:33:15.590Z,13.6
2019-03-09T13:36:15.400Z,13.5
2019-03-09T13:39:15.009Z,13.5
2019-03-09T13:42:15.716Z,13.4
2019-03-09T13:45:15.469Z,13.5
2019-03-09T13:48:15.030Z,13.3
2019-03-09T13:51:15.758Z,13.4
2019-03-09T13:54:15.340Z,13.3
2019-03-09T13:57:16.010Z,13.3
2019-03-09T14:00:15.611Z,13.2
2019-03-09T14:03:15.840Z,13.2
2019-03-09T14:06:15.595Z,13.1
2019-03-09T14:09:15.454Z,12.9
2019-03-09T14:12:15.083Z,12.7
2019-03-09T14:15:15.973Z,12.6
2019-03-09T14:18:15.670Z,12.6
2019-03-09T14:21:15.465Z,12.7
2019-03-09T14:24:15.060Z,12.7
2019-03-09T14:27:15.796Z,12.8
2019-03-09T14:30:15.498Z,13.0
2019-03-09T14:33:15.289Z,13.0
2019-03-09T14:36:15.678Z,13.0
2019-03-09T14:39:15.326Z,12.9
2019-03-09T14:42:15.128Z,12.8
2019-03-09T14:45:15.271Z,12.8
2019-03-09T14:48:15.872Z,12.7
2019-03-09T14:51:15.394Z,12.6
2019-03-09T14:54:15.904Z,12.8
2019-03-09T14:57:15.519Z,12.9
2019-03-09T15:00:15.264Z,12.9
2019-03-09T15:03:14.925Z,13.0
2019-03-09T15:06:15.728Z,13.2
2019-03-09T15:09:15.441Z,13.2
2019-03-09T15:12:15.180Z,13.2
2019-03-09T15:15:15.088Z,13.3
2019-03-09T15:18:15.745Z,13.3
2019-03-09T15:21:15.499Z,13.3
2019-03-09T15:24:15.177Z,13.3
2019-03-09T15:27:15.822Z,13.3
2019-03-09T15:30:15.416Z,13.4
2019-03-09T15:33:15.177Z,13.4
2019-03-09T15:36:15.731Z,13.4
2019-03-09T15:39:15.694Z,13.5
2019-03-09T15:42:15.523Z,13.5
2019-03-09T15:45:15.180Z,13.4
2019-03-09T15:48:15.955Z,13.4
2019-03-09T15:51:15.460Z,13.3
2019-03-09T15:54:15.140Z,13.3
2019-03-09T15:57:15.863Z,13.2
2019-03-09T16:00:15.567Z,13.3
2019-03-09T16:03:15.298Z,13.4
2019-03-09T16:06:16.713Z,13.4
2019-03-09T16:09:15.641Z,13.3
2019-03-09T16:12:15.253Z,13.2
2019-03-09T16:15:15.959Z,13.2
2019-03-09T16:18:15.751Z,13.2
2019-03-09T16:21:14.966Z,13.2
2019-03-09T16:24:15.611Z,13.2
2019-03-09T16:27:15.203Z,13.1
2019-03-09T16:30:15.795Z,13.0
2019-03-09T16:33:15.404Z,13.0
2019-03-09T16:36:15.039Z,13.0
2019-03-09T16:39:15.796Z,12.9
2019-03-09T16:42:15.624Z,12.9
2019-03-09T16:45:15.578Z,12.9
2019-03-09T16:48:15.438Z,12.9
2019-03-09T16:51:15.593Z,12.9
2019-03-09T16:54:15.317Z,12.9
2019-03-09T16:57:16.036Z,12.8
2019-03-09T17:00:15.701Z,12.7
2019-03-09T17:03:15.430Z,12.6
2019-03-09T17:06:15.128Z,12.6
2019-03-09T17:09:15.073Z,12.5
2019-03-09T17:12:15.048Z,12.5
2019-03-09T17:15:15.906Z,12.5
2019-03-09T17:18:15.942Z,12.3
2019-03-09T17:21:15.690Z,12.3
2019-03-09T17:24:15.471Z,12.2
2019-03-09T17:27:15.423Z,12.2
2019-03-09T17:30:14.946Z,12.1
2019-03-09T17:33:15.804Z,12.1
2019-03-09T17:36:15.632Z,12.1
2019-03-09T17:39:15.565Z,12.0
2019-03-09T17:42:15.513Z,12.0
2019-03-09T17:45:15.232Z,11.9
2019-03-09T17:48:15.158Z,11.9
2019-03-09T17:51:15.143Z,11.8
2019-03-09T17:54:15.998Z,11.8
2019-03-09T17:57:15.782Z,11.9
2019-03-09T18:00:15.512Z,11.9
2019-03-09T18:03:15.918Z,11.9
2019-03-09T18:06:15.686Z,11.8
2019-03-09T18:09:15.473Z,11.9
2019-03-09T18:12:15.239Z,11.8
2019-03-09T18:15:15.096Z,11.8
2019-03-09T18:18:15.145Z,11.8
2019-03-09T18:21:15.963Z,11.8
2019-03-09T18:24:15.134Z,11.7
2019-03-09T18:27:14.999Z,11.8
2019-03-09T18:30:15.933Z,11.8
2019-03-09T18:33:17.743Z,11.8
2019-03-09T18:36:15.787Z,11.8
2019-03-09T18:39:15.673Z,11.8
2019-03-09T18:42:16.596Z,11.9
2019-03-09T18:45:15.583Z,12.0
2019-03-09T18:48:15.460Z,12.0
2019-03-09T18:51:15.305Z,12.0
2019-03-09T18:54:15.238Z,12.1
2019-03-09T18:57:15.201Z,12.0
2019-03-09T19:00:14.967Z,12.0
2019-03-09T19:03:15.881Z,12.1
2019-03-09T19:06:15.649Z,12.0
2019-03-09T19:09:15.479Z,11.9
2019-03-09T19:12:15.170Z,11.9
2019-03-09T19:15:15.088Z,12.0
2019-03-09T19:18:15.863Z,11.8
2019-03-09T19:21:15.763Z,11.8
2019-03-09T19:24:15.590Z,11.8
2019-03-09T19:27:15.372Z,11.8
2019-03-09T19:30:15.317Z,11.8
2019-03-09T19:33:15.121Z,11.8
2019-03-09T19:36:15.606Z,11.9
2019-03-09T19:39:15.539Z,11.9
2019-03-09T19:42:15.285Z,11.9
2019-03-09T19:45:15.929Z,12.0
2019-03-09T19:48:15.618Z,12.1
2019-03-09T19:51:15.421Z,12.1
2019-03-09T19:54:15.268Z,12.0
2019-03-09T19:57:15.004Z,12.0
2019-03-09T20:00:15.934Z,12.0
2019-03-09T20:03:15.843Z,12.1
2019-03-09T20:06:15.731Z,12.1
2019-03-09T20:09:15.490Z,12.1
2019-03-09T20:12:15.279Z,12.1
2019-03-09T20:15:15.069Z,12.1
2019-03-09T20:18:15.910Z,12.1
2019-03-09T20:21:15.658Z,12.1
2019-03-09T20:24:15.742Z,12.1
2019-03-09T20:27:15.718Z,12.1
2019-03-09T20:30:15.556Z,11.9
2019-03-09T20:33:15.269Z,12.0
2019-03-09T20:36:15.291Z,12.0
2019-03-09T20:39:15.191Z,12.0
2019-03-09T20:42:14.960Z,12.0
2019-03-09T20:45:15.783Z,12.0
2019-03-09T20:48:15.445Z,12.0
2019-03-09T20:51:15.253Z,12.0
2019-03-09T20:54:15.084Z,12.0
2019-03-09T20:57:15.787Z,12.1
2019-03-09T21:00:15.616Z,12.1
2019-03-09T21:03:15.731Z,12.0
2019-03-09T21:06:15.559Z,12.0
2019-03-09T21:09:15.451Z,11.9
2019-03-09T21:12:15.251Z,11.9
2019-03-09T21:15:15.095Z,12.0
2019-03-09T21:18:15.214Z,12.0
2019-03-09T21:21:15.847Z,12.0
2019-03-09T21:24:15.909Z,12.1
2019-03-09T21:27:15.653Z,12.1
2019-03-09T21:30:15.540Z,12.0
2019-03-09T21:33:15.346Z,12.1
2019-03-09T21:36:15.253Z,12.1
2019-03-09T21:39:15.029Z,12.0
2019-03-09T21:42:15.901Z,12.1
2019-03-09T21:45:15.720Z,12.0
2019-03-09T21:48:15.519Z,12.0
2019-03-09T21:51:15.727Z,12.0
2019-03-09T21:54:15.552Z,12.0
2019-03-09T21:57:15.270Z,11.9
2019-03-09T22:00:20.113Z,12.0
2019-03-09T22:03:15.790Z,11.9
2019-03-09T22:06:15.567Z,11.9
2019-03-09T22:09:15.216Z,11.9
2019-03-09T22:12:15.094Z,11.9
2019-03-09T22:15:15.807Z,11.8
2019-03-09T22:18:15.506Z,11.8
2019-03-09T22:21:15.204Z,11.8
2019-03-09T22:24:15.866Z,11.7
2019-03-09T22:27:15.534Z,11.7
2019-03-09T22:30:15.251Z,11.8
2019-03-09T22:33:15.065Z,11.7
2019-03-09T22:36:15.753Z,11.7
2019-03-09T22:39:15.494Z,11.6
2019-03-09T22:42:15.134Z,11.6
2019-03-09T22:45:15.931Z,11.6
2019-03-09T22:48:15.897Z,11.6
2019-03-09T22:51:15.250Z,11.6
2019-03-09T22:54:15.083Z,11.6
2019-03-09T22:57:15.912Z,11.7
2019-03-09T23:00:15.616Z,11.6
2019-03-09T23:03:15.487Z,11.5
2019-03-09T23:06:15.317Z,11.5
2019-03-09T23:09:15.021Z,11.6
2019-03-09T23:12:15.818Z,11.6
2019-03-09T23:15:15.629Z,11.6
2019-03-09T23:18:15.411Z,11.6
2019-03-09T23:21:15.142Z,11.5
2019-03-09T23:24:15.893Z,11.6
2019-03-09T23:27:15.713Z,11.5
2019-03-09T23:30:15.556Z,11.6
2019-03-09T23:33:15.597Z,11.5
2019-03-09T23:36:15.364Z,11.6
2019-03-09T23:39:15.158Z,11.5
2019-03-09T23:42:15.782Z,11.5
2019-03-09T23:45:15.507Z,11.5
2019-03-09T23:48:15.553Z,11.6
2019-03-09T23:51:15.455Z,11.5
2019-03-09T23:54:15.210Z,11.5
2019-03-09T23:57:15.830Z,11.5
